sensor_id;sensor_type;location;lat;lon;timestamp;temperature;humidity
61016;DHT22;46902;52.920;6.536;2023-08-06T00:02:13;15.00;99.90
61016;DHT22;46902;52.920;6.536;2023-08-06T00:04:39;15.10;99.90
61016;DHT22;46902;52.920;6.536;2023-08-06T00:07:04;15.10;99.90
61016;DHT22;46902;52.920;6.536;2023-08-06T00:09:30;15.00;99.90
61016;DHT22;46902;52.920;6.536;2023-08-06T00:11:56;15.10;99.90
61016;DHT22;46902;52.920;6.536;2023-08-06T00:14:21;15.10;99.90
61016;DHT22;46902;52.920;6.536;2023-08-06T00:16:47;15.10;99.90
61016;DHT22;46902;52.920;6.536;2023-08-06T00:19:12;15.10;99.90
61016;DHT22;46902;52.920;6.536;2023-08-06T00:21:38;15.00;99.90
61016;DHT22;46902;52.920;6.536;2023-08-06T00:24:04;15.00;99.90
61016;DHT22;46902;52.920;6.536;2023-08-06T00:26:29;15.00;99.90
61016;DHT22;46902;52.920;6.536;2023-08-06T00:28:55;15.10;99.90
61016;DHT22;46902;52.920;6.536;2023-08-06T00:31:21;15.00;99.90
61016;DHT22;46902;52.920;6.536;2023-08-06T00:33:46;15.00;99.90
61016;DHT22;46902;52.920;6.536;2023-08-06T00:36:12;15.00;99.90
61016;DHT22;46902;52.920;6.536;2023-08-06T00:38:37;15.00;99.90
61016;DHT22;46902;52.920;6.536;2023-08-06T00:41:03;15.00;99.90
61016;DHT22;46902;52.920;6.536;2023-08-06T00:43:29;15.00;99.90
61016;DHT22;46902;52.920;6.536;2023-08-06T00:45:55;15.00;99.90
61016;DHT22;46902;52.920;6.536;2023-08-06T00:48:21;15.00;99.90
61016;DHT22;46902;52.920;6.536;2023-08-06T00:50:47;15.00;99.90
61016;DHT22;46902;52.920;6.536;2023-08-06T00:53:12;14.90;99.90
61016;DHT22;46902;52.920;6.536;2023-08-06T00:55:38;15.00;99.90
61016;DHT22;46902;52.920;6.536;2023-08-06T00:58:05;15.00;99.90
61016;DHT22;46902;52.920;6.536;2023-08-06T01:00:30;15.00;99.90
61016;DHT22;46902;52.920;6.536;2023-08-06T01:02:56;14.90;99.90
61016;DHT22;46902;52.920;6.536;2023-08-06T01:05:22;15.00;99.90
61016;DHT22;46902;52.920;6.536;2023-08-06T01:13:38;15.00;99.90
61016;DHT22;46902;52.920;6.536;2023-08-06T01:16:01;14.90;99.90
61016;DHT22;46902;52.920;6.536;2023-08-06T01:18:27;14.90;99.90
61016;DHT22;46902;52.920;6.536;2023-08-06T01:20:52;14.90;99.90
61016;DHT22;46902;52.920;6.536;2023-08-06T01:23:18;14.90;99.90
61016;DHT22;46902;52.920;6.536;2023-08-06T01:28:27;14.90;99.90
61016;DHT22;46902;52.920;6.536;2023-08-06T01:30:55;14.90;99.90
61016;DHT22;46902;52.920;6.536;2023-08-06T01:33:25;14.90;99.90
61016;DHT22;46902;52.920;6.536;2023-08-06T01:35:54;14.90;99.90
61016;DHT22;46902;52.920;6.536;2023-08-06T01:38:20;14.80;99.90
61016;DHT22;46902;52.920;6.536;2023-08-06T01:40:46;14.90;99.90
61016;DHT22;46902;52.920;6.536;2023-08-06T01:43:11;14.80;99.90
61016;DHT22;46902;52.920;6.536;2023-08-06T01:45:37;14.80;99.90
61016;DHT22;46902;52.920;6.536;2023-08-06T01:48:03;14.80;99.90
61016;DHT22;46902;52.920;6.536;2023-08-06T01:50:29;14.70;99.90
61016;DHT22;46902;52.920;6.536;2023-08-06T01:52:54;14.70;99.90
61016;DHT22;46902;52.920;6.536;2023-08-06T01:55:20;14.80;99.90
61016;DHT22;46902;52.920;6.536;2023-08-06T01:57:45;14.70;99.90
61016;DHT22;46902;52.920;6.536;2023-08-06T02:00:11;14.70;99.90
61016;DHT22;46902;52.920;6.536;2023-08-06T02:02:37;14.70;99.90
61016;DHT22;46902;52.920;6.536;2023-08-06T02:05:03;14.70;99.90
61016;DHT22;46902;52.920;6.536;2023-08-06T02:07:29;14.70;99.90
61016;DHT22;46902;52.920;6.536;2023-08-06T02:09:54;14.70;99.90
61016;DHT22;46902;52.920;6.536;2023-08-06T02:12:20;14.60;99.90
61016;DHT22;46902;52.920;6.536;2023-08-06T02:14:46;14.70;99.90
61016;DHT22;46902;52.920;6.536;2023-08-06T02:17:11;14.60;99.90
61016;DHT22;46902;52.920;6.536;2023-08-06T02:19:37;14.60;99.90
61016;DHT22;46902;52.920;6.536;2023-08-06T02:22:02;14.60;99.90
61016;DHT22;46902;52.920;6.536;2023-08-06T02:24:28;14.70;99.90
61016;DHT22;46902;52.920;6.536;2023-08-06T02:26:54;14.70;99.90
61016;DHT22;46902;52.920;6.536;2023-08-06T02:29:21;14.70;99.90
61016;DHT22;46902;52.920;6.536;2023-08-06T02:31:46;14.70;99.90
61016;DHT22;46902;52.920;6.536;2023-08-06T02:34:12;14.70;99.90
61016;DHT22;46902;52.920;6.536;2023-08-06T02:36:37;14.70;99.90
61016;DHT22;46902;52.920;6.536;2023-08-06T02:39:03;14.70;99.90
61016;DHT22;46902;52.920;6.536;2023-08-06T02:41:29;14.70;99.90
61016;DHT22;46902;52.920;6.536;2023-08-06T02:43:54;14.80;99.90
61016;DHT22;46902;52.920;6.536;2023-08-06T02:46:20;14.80;99.90
61016;DHT22;46902;52.920;6.536;2023-08-06T02:48:45;14.80;99.90
61016;DHT22;46902;52.920;6.536;2023-08-06T02:51:11;14.70;99.90
61016;DHT22;46902;52.920;6.536;2023-08-06T02:53:37;14.80;99.90
61016;DHT22;46902;52.920;6.536;2023-08-06T02:56:02;14.80;99.90
61016;DHT22;46902;52.920;6.536;2023-08-06T02:58:28;14.70;99.90
61016;DHT22;46902;52.920;6.536;2023-08-06T03:01:04;14.80;99.90
61016;DHT22;46902;52.920;6.536;2023-08-06T03:03:31;14.80;99.90
61016;DHT22;46902;52.920;6.536;2023-08-06T03:05:57;14.80;99.90
61016;DHT22;46902;52.920;6.536;2023-08-06T03:08:23;14.80;99.90
61016;DHT22;46902;52.920;6.536;2023-08-06T03:10:49;14.80;99.90
61016;DHT22;46902;52.920;6.536;2023-08-06T03:13:16;14.80;99.90
61016;DHT22;46902;52.920;6.536;2023-08-06T03:15:42;14.70;99.90
61016;DHT22;46902;52.920;6.536;2023-08-06T03:18:07;14.80;99.90
61016;DHT22;46902;52.920;6.536;2023-08-06T03:20:33;14.70;99.90
61016;DHT22;46902;52.920;6.536;2023-08-06T03:22:59;14.70;99.90
61016;DHT22;46902;52.920;6.536;2023-08-06T03:25:24;14.70;99.90
61016;DHT22;46902;52.920;6.536;2023-08-06T03:27:50;14.70;99.90
61016;DHT22;46902;52.920;6.536;2023-08-06T03:30:15;14.60;99.90
61016;DHT22;46902;52.920;6.536;2023-08-06T03:32:41;14.60;99.90
61016;DHT22;46902;52.920;6.536;2023-08-06T03:35:07;14.60;99.90
61016;DHT22;46902;52.920;6.536;2023-08-06T03:37:32;14.60;99.90
61016;DHT22;46902;52.920;6.536;2023-08-06T03:39:58;14.60;99.90
61016;DHT22;46902;52.920;6.536;2023-08-06T03:42:24;14.60;99.90
61016;DHT22;46902;52.920;6.536;2023-08-06T03:44:49;14.60;99.90
61016;DHT22;46902;52.920;6.536;2023-08-06T03:47:15;14.60;99.90
61016;DHT22;46902;52.920;6.536;2023-08-06T03:49:40;14.70;99.90
61016;DHT22;46902;52.920;6.536;2023-08-06T03:52:06;14.60;99.90
61016;DHT22;46902;52.920;6.536;2023-08-06T03:54:32;14.50;99.90
61016;DHT22;46902;52.920;6.536;2023-08-06T03:56:57;14.60;99.90
61016;DHT22;46902;52.920;6.536;2023-08-06T03:59:23;14.60;99.90
61016;DHT22;46902;52.920;6.536;2023-08-06T04:01:49;14.60;99.90
61016;DHT22;46902;52.920;6.536;2023-08-06T04:04:14;14.50;99.90
61016;DHT22;46902;52.920;6.536;2023-08-06T04:06:40;14.50;99.90
61016;DHT22;46902;52.920;6.536;2023-08-06T04:09:05;14.50;99.90
61016;DHT22;46902;52.920;6.536;2023-08-06T04:11:31;14.50;99.90
61016;DHT22;46902;52.920;6.536;2023-08-06T04:13:57;14.50;99.90
61016;DHT22;46902;52.920;6.536;2023-08-06T04:16:22;14.50;99.90
61016;DHT22;46902;52.920;6.536;2023-08-06T04:18:48;14.50;99.90
61016;DHT22;46902;52.920;6.536;2023-08-06T04:21:14;14.50;99.90
61016;DHT22;46902;52.920;6.536;2023-08-06T04:23:39;14.50;99.90
61016;DHT22;46902;52.920;6.536;2023-08-06T04:26:05;14.50;99.90
61016;DHT22;46902;52.920;6.536;2023-08-06T04:28:30;14.50;99.90
61016;DHT22;46902;52.920;6.536;2023-08-06T04:30:56;14.50;99.90
61016;DHT22;46902;52.920;6.536;2023-08-06T04:33:22;14.50;99.90
61016;DHT22;46902;52.920;6.536;2023-08-06T04:35:47;14.50;99.90
61016;DHT22;46902;52.920;6.536;2023-08-06T04:38:18;14.50;99.90
61016;DHT22;46902;52.920;6.536;2023-08-06T04:40:44;14.50;99.90
61016;DHT22;46902;52.920;6.536;2023-08-06T04:43:09;14.60;99.90
61016;DHT22;46902;52.920;6.536;2023-08-06T04:45:35;14.60;99.90
61016;DHT22;46902;52.920;6.536;2023-08-06T04:48:00;14.60;99.90
61016;DHT22;46902;52.920;6.536;2023-08-06T04:50:26;14.60;99.90
61016;DHT22;46902;52.920;6.536;2023-08-06T04:52:52;14.70;99.90
61016;DHT22;46902;52.920;6.536;2023-08-06T04:55:17;14.70;99.90
61016;DHT22;46902;52.920;6.536;2023-08-06T04:57:43;14.60;99.90
61016;DHT22;46902;52.920;6.536;2023-08-06T05:00:08;14.70;99.90
61016;DHT22;46902;52.920;6.536;2023-08-06T05:02:34;14.70;99.90
61016;DHT22;46902;52.920;6.536;2023-08-06T05:05:00;14.80;99.90
61016;DHT22;46902;52.920;6.536;2023-08-06T05:07:25;14.80;99.90
61016;DHT22;46902;52.920;6.536;2023-08-06T05:09:51;14.80;99.90
61016;DHT22;46902;52.920;6.536;2023-08-06T05:12:17;14.80;99.90
61016;DHT22;46902;52.920;6.536;2023-08-06T05:14:42;14.70;99.90
61016;DHT22;46902;52.920;6.536;2023-08-06T05:17:08;14.80;99.90
61016;DHT22;46902;52.920;6.536;2023-08-06T05:19:33;14.80;99.90
61016;DHT22;46902;52.920;6.536;2023-08-06T05:21:59;14.80;99.90
61016;DHT22;46902;52.920;6.536;2023-08-06T05:24:26;14.90;99.90
61016;DHT22;46902;52.920;6.536;2023-08-06T05:26:51;14.90;99.90
61016;DHT22;46902;52.920;6.536;2023-08-06T05:29:17;14.90;99.90
61016;DHT22;46902;52.920;6.536;2023-08-06T05:31:43;14.90;99.90
61016;DHT22;46902;52.920;6.536;2023-08-06T05:34:08;15.00;99.90
61016;DHT22;46902;52.920;6.536;2023-08-06T05:36:34;15.10;99.90
61016;DHT22;46902;52.920;6.536;2023-08-06T05:39:00;15.00;99.90
61016;DHT22;46902;52.920;6.536;2023-08-06T05:41:25;15.10;99.90
61016;DHT22;46902;52.920;6.536;2023-08-06T05:43:51;15.20;99.90
61016;DHT22;46902;52.920;6.536;2023-08-06T05:46:16;15.10;99.90
61016;DHT22;46902;52.920;6.536;2023-08-06T05:48:42;15.20;99.90
61016;DHT22;46902;52.920;6.536;2023-08-06T05:51:08;15.20;99.90
61016;DHT22;46902;52.920;6.536;2023-08-06T05:53:33;15.20;99.90
61016;DHT22;46902;52.920;6.536;2023-08-06T05:55:59;15.30;99.90
61016;DHT22;46902;52.920;6.536;2023-08-06T05:58:24;15.30;99.90
61016;DHT22;46902;52.920;6.536;2023-08-06T06:00:51;15.40;99.90
61016;DHT22;46902;52.920;6.536;2023-08-06T06:03:17;15.40;99.90
61016;DHT22;46902;52.920;6.536;2023-08-06T06:05:43;15.40;99.90
61016;DHT22;46902;52.920;6.536;2023-08-06T06:08:08;15.40;99.90
61016;DHT22;46902;52.920;6.536;2023-08-06T06:10:35;15.40;99.90
61016;DHT22;46902;52.920;6.536;2023-08-06T06:13:00;15.50;99.90
61016;DHT22;46902;52.920;6.536;2023-08-06T06:15:26;15.60;99.90
61016;DHT22;46902;52.920;6.536;2023-08-06T06:17:51;15.60;99.90
61016;DHT22;46902;52.920;6.536;2023-08-06T06:20:17;15.60;99.90
61016;DHT22;46902;52.920;6.536;2023-08-06T06:22:42;15.70;99.90
61016;DHT22;46902;52.920;6.536;2023-08-06T06:25:08;15.70;99.90
61016;DHT22;46902;52.920;6.536;2023-08-06T06:27:35;15.70;99.90
61016;DHT22;46902;52.920;6.536;2023-08-06T06:30:01;15.70;99.90
61016;DHT22;46902;52.920;6.536;2023-08-06T06:32:26;15.70;99.90
61016;DHT22;46902;52.920;6.536;2023-08-06T06:34:52;15.60;99.90
61016;DHT22;46902;52.920;6.536;2023-08-06T06:37:17;15.60;99.90
61016;DHT22;46902;52.920;6.536;2023-08-06T06:39:43;15.70;99.90
61016;DHT22;46902;52.920;6.536;2023-08-06T06:42:09;15.70;99.90
61016;DHT22;46902;52.920;6.536;2023-08-06T06:44:35;15.70;99.90
61016;DHT22;46902;52.920;6.536;2023-08-06T06:47:01;15.70;99.90
61016;DHT22;46902;52.920;6.536;2023-08-06T06:49:26;15.70;99.90
61016;DHT22;46902;52.920;6.536;2023-08-06T06:51:52;15.70;99.90
61016;DHT22;46902;52.920;6.536;2023-08-06T06:54:18;15.80;99.90
61016;DHT22;46902;52.920;6.536;2023-08-06T06:56:43;15.80;99.90
61016;DHT22;46902;52.920;6.536;2023-08-06T06:59:09;15.80;99.90
61016;DHT22;46902;52.920;6.536;2023-08-06T07:01:34;15.90;99.90
61016;DHT22;46902;52.920;6.536;2023-08-06T07:04:00;15.90;99.90
61016;DHT22;46902;52.920;6.536;2023-08-06T07:06:30;16.00;99.90
61016;DHT22;46902;52.920;6.536;2023-08-06T07:08:56;16.00;99.90
61016;DHT22;46902;52.920;6.536;2023-08-06T07:11:22;16.00;99.90
61016;DHT22;46902;52.920;6.536;2023-08-06T07:13:47;16.10;99.90
61016;DHT22;46902;52.920;6.536;2023-08-06T07:16:13;16.10;99.90
61016;DHT22;46902;52.920;6.536;2023-08-06T07:18:38;16.00;99.90
61016;DHT22;46902;52.920;6.536;2023-08-06T07:21:04;16.00;99.90
61016;DHT22;46902;52.920;6.536;2023-08-06T07:23:29;16.20;99.90
61016;DHT22;46902;52.920;6.536;2023-08-06T07:25:55;16.20;99.90
61016;DHT22;46902;52.920;6.536;2023-08-06T07:28:21;16.20;99.90
61016;DHT22;46902;52.920;6.536;2023-08-06T07:30:47;16.30;99.90
61016;DHT22;46902;52.920;6.536;2023-08-06T07:33:13;16.40;99.90
61016;DHT22;46902;52.920;6.536;2023-08-06T07:35:39;16.50;99.90
61016;DHT22;46902;52.920;6.536;2023-08-06T07:38:05;16.50;99.90
61016;DHT22;46902;52.920;6.536;2023-08-06T07:40:30;16.50;99.90
61016;DHT22;46902;52.920;6.536;2023-08-06T07:42:56;16.50;99.90
61016;DHT22;46902;52.920;6.536;2023-08-06T07:45:22;16.60;99.90
61016;DHT22;46902;52.920;6.536;2023-08-06T07:47:47;16.60;99.90
61016;DHT22;46902;52.920;6.536;2023-08-06T07:50:13;16.70;99.90
61016;DHT22;46902;52.920;6.536;2023-08-06T07:52:39;16.70;99.90
61016;DHT22;46902;52.920;6.536;2023-08-06T07:55:05;16.70;99.90
61016;DHT22;46902;52.920;6.536;2023-08-06T07:57:31;16.70;99.90
61016;DHT22;46902;52.920;6.536;2023-08-06T07:59:57;16.80;99.90
61016;DHT22;46902;52.920;6.536;2023-08-06T08:02:22;16.80;99.90
61016;DHT22;46902;52.920;6.536;2023-08-06T08:04:48;16.90;99.90
61016;DHT22;46902;52.920;6.536;2023-08-06T08:07:14;16.90;99.90
61016;DHT22;46902;52.920;6.536;2023-08-06T08:09:40;17.00;99.90
61016;DHT22;46902;52.920;6.536;2023-08-06T08:12:06;17.00;99.90
61016;DHT22;46902;52.920;6.536;2023-08-06T08:14:31;17.00;99.90
61016;DHT22;46902;52.920;6.536;2023-08-06T08:17:05;17.10;99.90
61016;DHT22;46902;52.920;6.536;2023-08-06T08:19:32;17.10;99.90
61016;DHT22;46902;52.920;6.536;2023-08-06T08:21:57;17.10;99.90
61016;DHT22;46902;52.920;6.536;2023-08-06T08:24:23;17.10;99.90
61016;DHT22;46902;52.920;6.536;2023-08-06T08:26:50;17.20;99.90
61016;DHT22;46902;52.920;6.536;2023-08-06T08:29:16;17.30;99.90
61016;DHT22;46902;52.920;6.536;2023-08-06T08:31:41;17.30;99.90
61016;DHT22;46902;52.920;6.536;2023-08-06T08:34:08;17.40;99.90
61016;DHT22;46902;52.920;6.536;2023-08-06T08:36:34;17.50;99.90
61016;DHT22;46902;52.920;6.536;2023-08-06T08:39:00;17.50;99.90
61016;DHT22;46902;52.920;6.536;2023-08-06T08:41:28;17.60;99.90
61016;DHT22;46902;52.920;6.536;2023-08-06T08:43:55;17.70;99.90
61016;DHT22;46902;52.920;6.536;2023-08-06T08:46:21;17.70;99.90
61016;DHT22;46902;52.920;6.536;2023-08-06T08:48:47;17.80;99.90
61016;DHT22;46902;52.920;6.536;2023-08-06T08:51:13;17.90;99.90
61016;DHT22;46902;52.920;6.536;2023-08-06T08:53:39;18.10;99.90
61016;DHT22;46902;52.920;6.536;2023-08-06T08:56:05;18.10;99.90
61016;DHT22;46902;52.920;6.536;2023-08-06T08:58:31;18.10;99.90
61016;DHT22;46902;52.920;6.536;2023-08-06T09:00:57;18.20;99.90
61016;DHT22;46902;52.920;6.536;2023-08-06T09:03:23;18.20;99.90
61016;DHT22;46902;52.920;6.536;2023-08-06T09:05:53;18.20;99.90
61016;DHT22;46902;52.920;6.536;2023-08-06T09:08:21;18.20;99.90
61016;DHT22;46902;52.920;6.536;2023-08-06T09:10:50;18.30;99.90
61016;DHT22;46902;52.920;6.536;2023-08-06T09:13:17;18.30;99.90
61016;DHT22;46902;52.920;6.536;2023-08-06T09:15:43;18.40;99.90
61016;DHT22;46902;52.920;6.536;2023-08-06T09:18:11;18.30;99.90
61016;DHT22;46902;52.920;6.536;2023-08-06T09:20:40;18.40;99.90
61016;DHT22;46902;52.920;6.536;2023-08-06T09:23:10;18.40;99.90
61016;DHT22;46902;52.920;6.536;2023-08-06T09:25:38;18.50;99.90
61016;DHT22;46902;52.920;6.536;2023-08-06T09:28:05;18.60;99.90
61016;DHT22;46902;52.920;6.536;2023-08-06T09:30:35;18.60;99.90
61016;DHT22;46902;52.920;6.536;2023-08-06T09:33:01;18.70;99.90
61016;DHT22;46902;52.920;6.536;2023-08-06T09:35:28;18.80;99.90
61016;DHT22;46902;52.920;6.536;2023-08-06T09:37:55;18.80;99.90
61016;DHT22;46902;52.920;6.536;2023-08-06T09:40:24;18.80;99.90
61016;DHT22;46902;52.920;6.536;2023-08-06T09:42:50;18.90;99.90
61016;DHT22;46902;52.920;6.536;2023-08-06T09:45:16;19.00;99.90
61016;DHT22;46902;52.920;6.536;2023-08-06T09:47:42;19.00;99.90
61016;DHT22;46902;52.920;6.536;2023-08-06T09:50:20;19.10;99.90
61016;DHT22;46902;52.920;6.536;2023-08-06T09:52:50;19.20;99.90
61016;DHT22;46902;52.920;6.536;2023-08-06T09:55:18;19.30;99.90
61016;DHT22;46902;52.920;6.536;2023-08-06T09:57:44;19.40;99.90
61016;DHT22;46902;52.920;6.536;2023-08-06T10:00:11;19.50;99.90
61016;DHT22;46902;52.920;6.536;2023-08-06T10:02:38;19.60;99.90
61016;DHT22;46902;52.920;6.536;2023-08-06T10:05:05;19.70;99.90
61016;DHT22;46902;52.920;6.536;2023-08-06T10:07:31;19.80;99.90
61016;DHT22;46902;52.920;6.536;2023-08-06T10:09:58;19.90;99.90
61016;DHT22;46902;52.920;6.536;2023-08-06T10:12:25;20.10;99.90
61016;DHT22;46902;52.920;6.536;2023-08-06T10:14:54;20.20;99.90
61016;DHT22;46902;52.920;6.536;2023-08-06T10:17:21;20.40;99.90
61016;DHT22;46902;52.920;6.536;2023-08-06T10:19:48;20.40;99.90
61016;DHT22;46902;52.920;6.536;2023-08-06T10:22:16;20.50;99.90
61016;DHT22;46902;52.920;6.536;2023-08-06T10:24:53;20.60;99.90
61016;DHT22;46902;52.920;6.536;2023-08-06T10:29:53;20.70;99.90
61016;DHT22;46902;52.920;6.536;2023-08-06T10:32:19;20.80;99.90
61016;DHT22;46902;52.920;6.536;2023-08-06T10:37:24;21.10;99.90
61016;DHT22;46902;52.920;6.536;2023-08-06T10:39:53;21.20;99.90
61016;DHT22;46902;52.920;6.536;2023-08-06T10:42:26;21.40;99.90
61016;DHT22;46902;52.920;6.536;2023-08-06T10:45:14;21.50;99.90
61016;DHT22;46902;52.920;6.536;2023-08-06T10:47:41;21.70;99.90
61016;DHT22;46902;52.920;6.536;2023-08-06T10:50:10;21.80;99.90
61016;DHT22;46902;52.920;6.536;2023-08-06T10:52:36;22.00;99.90
61016;DHT22;46902;52.920;6.536;2023-08-06T10:55:02;22.20;99.90
61016;DHT22;46902;52.920;6.536;2023-08-06T10:57:27;22.30;99.90
61016;DHT22;46902;52.920;6.536;2023-08-06T10:59:53;22.40;99.90
61016;DHT22;46902;52.920;6.536;2023-08-06T11:02:19;22.50;99.90
61016;DHT22;46902;52.920;6.536;2023-08-06T11:04:44;22.50;99.90
61016;DHT22;46902;52.920;6.536;2023-08-06T11:07:10;22.40;99.90
61016;DHT22;46902;52.920;6.536;2023-08-06T11:09:37;22.20;99.90
61016;DHT22;46902;52.920;6.536;2023-08-06T11:12:02;22.10;99.90
61016;DHT22;46902;52.920;6.536;2023-08-06T11:14:32;22.00;99.90
61016;DHT22;46902;52.920;6.536;2023-08-06T11:16:57;21.90;99.90
61016;DHT22;46902;52.920;6.536;2023-08-06T11:19:23;21.80;99.90
61016;DHT22;46902;52.920;6.536;2023-08-06T11:21:51;21.70;99.90
61016;DHT22;46902;52.920;6.536;2023-08-06T11:24:17;21.70;99.90
61016;DHT22;46902;52.920;6.536;2023-08-06T11:26:42;21.60;99.90
61016;DHT22;46902;52.920;6.536;2023-08-06T11:29:10;21.50;99.90
61016;DHT22;46902;52.920;6.536;2023-08-06T11:31:36;21.50;99.90
61016;DHT22;46902;52.920;6.536;2023-08-06T11:34:01;21.40;99.90
61016;DHT22;46902;52.920;6.536;2023-08-06T11:36:32;21.40;99.90
61016;DHT22;46902;52.920;6.536;2023-08-06T11:38:58;21.40;99.90
61016;DHT22;46902;52.920;6.536;2023-08-06T11:41:24;21.30;99.90
61016;DHT22;46902;52.920;6.536;2023-08-06T11:43:50;21.30;99.90
61016;DHT22;46902;52.920;6.536;2023-08-06T11:46:16;21.20;99.90
61016;DHT22;46902;52.920;6.536;2023-08-06T11:48:52;21.10;99.90
61016;DHT22;46902;52.920;6.536;2023-08-06T11:51:18;21.20;99.90
61016;DHT22;46902;52.920;6.536;2023-08-06T11:53:48;21.20;99.90
61016;DHT22;46902;52.920;6.536;2023-08-06T11:56:15;21.20;99.90
61016;DHT22;46902;52.920;6.536;2023-08-06T11:58:41;21.20;99.90
61016;DHT22;46902;52.920;6.536;2023-08-06T12:01:07;21.20;99.90
61016;DHT22;46902;52.920;6.536;2023-08-06T12:03:38;21.30;99.90
61016;DHT22;46902;52.920;6.536;2023-08-06T12:06:04;21.30;99.90
61016;DHT22;46902;52.920;6.536;2023-08-06T12:08:29;21.40;99.90
61016;DHT22;46902;52.920;6.536;2023-08-06T12:10:55;21.50;99.90
61016;DHT22;46902;52.920;6.536;2023-08-06T12:13:20;21.50;99.90
61016;DHT22;46902;52.920;6.536;2023-08-06T12:15:46;21.60;99.90
61016;DHT22;46902;52.920;6.536;2023-08-06T12:18:12;21.60;99.90
61016;DHT22;46902;52.920;6.536;2023-08-06T12:20:37;21.60;99.90
61016;DHT22;46902;52.920;6.536;2023-08-06T12:23:04;21.50;99.90
61016;DHT22;46902;52.920;6.536;2023-08-06T12:25:29;21.50;99.90
61016;DHT22;46902;52.920;6.536;2023-08-06T12:27:55;21.40;99.90
61016;DHT22;46902;52.920;6.536;2023-08-06T12:30:21;21.50;99.90
61016;DHT22;46902;52.920;6.536;2023-08-06T12:32:46;21.90;99.90
61016;DHT22;46902;52.920;6.536;2023-08-06T12:35:12;22.30;99.90
61016;DHT22;46902;52.920;6.536;2023-08-06T12:37:39;22.60;99.90
61016;DHT22;46902;52.920;6.536;2023-08-06T12:40:05;22.90;98.40
61016;DHT22;46902;52.920;6.536;2023-08-06T12:42:31;23.30;98.90
61016;DHT22;46902;52.920;6.536;2023-08-06T12:44:57;23.60;97.40
61016;DHT22;46902;52.920;6.536;2023-08-06T12:47:22;23.70;96.40
61016;DHT22;46902;52.920;6.536;2023-08-06T12:49:49;23.50;94.60
61016;DHT22;46902;52.920;6.536;2023-08-06T12:52:15;23.30;95.00
61016;DHT22;46902;52.920;6.536;2023-08-06T12:54:41;23.00;95.40
61016;DHT22;46902;52.920;6.536;2023-08-06T12:57:07;22.80;95.70
61016;DHT22;46902;52.920;6.536;2023-08-06T12:59:33;22.60;95.70
61016;DHT22;46902;52.920;6.536;2023-08-06T13:01:59;22.40;96.40
61016;DHT22;46902;52.920;6.536;2023-08-06T13:04:25;22.20;96.40
61016;DHT22;46902;52.920;6.536;2023-08-06T13:06:50;22.10;96.80
61016;DHT22;46902;52.920;6.536;2023-08-06T13:09:16;22.00;97.00
61016;DHT22;46902;52.920;6.536;2023-08-06T13:11:42;21.90;97.40
61016;DHT22;46902;52.920;6.536;2023-08-06T13:14:12;21.80;97.70
61016;DHT22;46902;52.920;6.536;2023-08-06T13:16:41;21.80;97.80
61016;DHT22;46902;52.920;6.536;2023-08-06T13:19:07;21.70;97.80
61016;DHT22;46902;52.920;6.536;2023-08-06T13:24:17;21.60;99.00
61016;DHT22;46902;52.920;6.536;2023-08-06T13:26:42;21.50;99.40
61016;DHT22;46902;52.920;6.536;2023-08-06T13:29:08;21.40;99.10
61016;DHT22;46902;52.920;6.536;2023-08-06T13:31:34;21.40;99.20
61016;DHT22;46902;52.920;6.536;2023-08-06T13:33:59;21.30;99.30
61016;DHT22;46902;52.920;6.536;2023-08-06T13:36:26;21.30;99.20
61016;DHT22;46902;52.920;6.536;2023-08-06T13:38:51;21.30;99.50
61016;DHT22;46902;52.920;6.536;2023-08-06T13:41:17;21.30;99.90
61016;DHT22;46902;52.920;6.536;2023-08-06T13:43:43;21.30;99.60
61016;DHT22;46902;52.920;6.536;2023-08-06T13:46:10;21.20;99.30
61016;DHT22;46902;52.920;6.536;2023-08-06T13:48:40;21.20;99.10
61016;DHT22;46902;52.920;6.536;2023-08-06T13:51:06;21.10;99.10
61016;DHT22;46902;52.920;6.536;2023-08-06T13:53:31;21.10;99.70
61016;DHT22;46902;52.920;6.536;2023-08-06T13:55:57;21.00;99.80
61016;DHT22;46902;52.920;6.536;2023-08-06T13:58:23;21.10;99.90
61016;DHT22;46902;52.920;6.536;2023-08-06T14:00:49;21.10;99.70
61016;DHT22;46902;52.920;6.536;2023-08-06T14:03:15;21.10;99.90
61016;DHT22;46902;52.920;6.536;2023-08-06T14:05:41;21.10;99.90
61016;DHT22;46902;52.920;6.536;2023-08-06T14:08:07;21.10;99.90
61016;DHT22;46902;52.920;6.536;2023-08-06T14:10:32;21.10;99.90
61016;DHT22;46902;52.920;6.536;2023-08-06T14:12:58;21.10;99.90
61016;DHT22;46902;52.920;6.536;2023-08-06T14:15:23;21.20;99.90
61016;DHT22;46902;52.920;6.536;2023-08-06T14:17:49;21.20;99.90
61016;DHT22;46902;52.920;6.536;2023-08-06T14:20:15;21.40;99.90
61016;DHT22;46902;52.920;6.536;2023-08-06T14:22:40;21.40;99.50
61016;DHT22;46902;52.920;6.536;2023-08-06T14:25:06;21.40;98.80
61016;DHT22;46902;52.920;6.536;2023-08-06T14:27:32;21.50;99.20
61016;DHT22;46902;52.920;6.536;2023-08-06T14:29:57;21.50;99.10
61016;DHT22;46902;52.920;6.536;2023-08-06T14:32:23;21.50;98.60
61016;DHT22;46902;52.920;6.536;2023-08-06T14:34:48;21.70;99.20
61016;DHT22;46902;52.920;6.536;2023-08-06T14:37:14;21.80;98.70
61016;DHT22;46902;52.920;6.536;2023-08-06T14:39:40;22.20;99.00
61016;DHT22;46902;52.920;6.536;2023-08-06T14:42:06;22.60;99.10
61016;DHT22;46902;52.920;6.536;2023-08-06T14:44:31;22.90;97.80
61016;DHT22;46902;52.920;6.536;2023-08-06T14:46:57;23.20;97.20
61016;DHT22;46902;52.920;6.536;2023-08-06T14:49:23;23.30;96.00
61016;DHT22;46902;52.920;6.536;2023-08-06T14:51:49;23.20;94.50
61016;DHT22;46902;52.920;6.536;2023-08-06T14:54:15;22.90;94.00
61016;DHT22;46902;52.920;6.536;2023-08-06T14:56:40;22.70;94.30
61016;DHT22;46902;52.920;6.536;2023-08-06T14:59:06;22.50;95.20
61016;DHT22;46902;52.920;6.536;2023-08-06T15:01:31;22.40;95.40
61016;DHT22;46902;52.920;6.536;2023-08-06T15:03:57;22.40;95.60
61016;DHT22;46902;52.920;6.536;2023-08-06T15:06:23;22.60;95.50
61016;DHT22;46902;52.920;6.536;2023-08-06T15:08:48;22.80;94.80
61016;DHT22;46902;52.920;6.536;2023-08-06T15:11:14;22.90;94.70
61016;DHT22;46902;52.920;6.536;2023-08-06T15:13:42;22.90;94.30
61016;DHT22;46902;52.920;6.536;2023-08-06T15:16:08;23.00;94.00
61016;DHT22;46902;52.920;6.536;2023-08-06T15:18:33;23.00;93.00
61016;DHT22;46902;52.920;6.536;2023-08-06T15:20:59;22.90;93.00
61016;DHT22;46902;52.920;6.536;2023-08-06T15:23:25;22.70;92.90
61016;DHT22;46902;52.920;6.536;2023-08-06T15:25:50;22.60;93.20
61016;DHT22;46902;52.920;6.536;2023-08-06T15:28:16;22.50;93.60
61016;DHT22;46902;52.920;6.536;2023-08-06T15:30:50;22.50;94.00
61016;DHT22;46902;52.920;6.536;2023-08-06T15:33:18;22.50;93.60
61016;DHT22;46902;52.920;6.536;2023-08-06T15:35:44;22.50;93.60
61016;DHT22;46902;52.920;6.536;2023-08-06T15:38:09;22.40;93.20
61016;DHT22;46902;52.920;6.536;2023-08-06T15:40:35;22.50;93.70